Portada
METAR-TAF:

METAR-TAF

Aeroports :

Bàssora, Iraq

latitud: 30-32-56N, longitud: 47-39-45E, altitud: 1 m

Observació

L'informe es va fer fa 40 minuts, a les 03:00 UTC
Vent 10 kt del Oest
Temperatura 33°C
Humitat 26%
Pressió 998 hPa
Visibilitat 10 km o més
sense núvols per sota de 1500 mi sense presència de cumulonimbus.

METAR: ORMM 240300Z 28010KT CAVOK 33/11 Q0998 NOSIG

Hora: 06:40 (03:40 UTC)

Pronòstic

L'informe es va fer fa 5 hores i 40 minuts, a les 22:00 UTC
Pronòstic vàlid del 24 a les 00 UTC al 24 a les 24 UTC
Vent 8 kt del Oest/Nord-Oest
Visibilitat 10 km o més
sense núvols per sota de 1500 mi sense presència de cumulonimbus.

TAF: ORMM 232200Z 2400/2424 30008KT CAVOK

Observacions i pronòstics meteorològics de més de 4000 aeroports (METAR i TAF).

Les estacions disponibles són els punts grocs i vermells al mapa.

Posi el ratolí al punt desitjat per veure el nom de l'estació.

Feu clic per veure les observacions i els pronòstics meteorològics.

Per canviar el mapa: feu clic els botons verds amb una creu de color negre per apropar; al botó verd amb un guió per allunyar la imatge; o en les fletxes verdes per a mapes adjacents.


METAR-TAF: